sensor_id;sensor_type;location;lat;lon;timestamp;P1;durP1;ratioP1;P2;durP2;ratioP2
51036;SDS011;37064;59.346;18.058;2023-04-01T00:00:44;5.13;;;1.25;;
51036;SDS011;37064;59.346;18.058;2023-04-01T00:03:10;3.95;;;1.05;;
51036;SDS011;37064;59.346;18.058;2023-04-01T00:05:36;1.65;;;0.98;;
51036;SDS011;37064;59.346;18.058;2023-04-01T00:08:03;2.47;;;1.30;;
51036;SDS011;37064;59.346;18.058;2023-04-01T00:10:29;3.15;;;1.38;;
51036;SDS011;37064;59.346;18.058;2023-04-01T00:12:55;2.20;;;1.20;;
51036;SDS011;37064;59.346;18.058;2023-04-01T00:15:21;1.95;;;1.20;;
51036;SDS011;37064;59.346;18.058;2023-04-01T00:17:47;2.75;;;1.20;;
51036;SDS011;37064;59.346;18.058;2023-04-01T00:20:13;2.45;;;1.45;;
51036;SDS011;37064;59.346;18.058;2023-04-01T00:22:39;2.13;;;0.98;;
51036;SDS011;37064;59.346;18.058;2023-04-01T00:25:05;1.13;;;1.00;;
51036;SDS011;37064;59.346;18.058;2023-04-01T00:27:32;2.83;;;1.50;;
51036;SDS011;37064;59.346;18.058;2023-04-01T00:29:58;3.08;;;1.10;;
51036;SDS011;37064;59.346;18.058;2023-04-01T00:32:24;2.67;;;1.13;;
51036;SDS011;37064;59.346;18.058;2023-04-01T00:34:51;2.97;;;1.35;;
51036;SDS011;37064;59.346;18.058;2023-04-01T00:37:18;4.50;;;1.27;;
51036;SDS011;37064;59.346;18.058;2023-04-01T00:39:44;2.40;;;1.30;;
51036;SDS011;37064;59.346;18.058;2023-04-01T00:42:11;2.25;;;1.05;;
51036;SDS011;37064;59.346;18.058;2023-04-01T00:44:38;1.95;;;0.98;;
51036;SDS011;37064;59.346;18.058;2023-04-01T00:47:04;2.25;;;1.25;;
51036;SDS011;37064;59.346;18.058;2023-04-01T00:49:31;4.25;;;1.58;;
51036;SDS011;37064;59.346;18.058;2023-04-01T00:51:59;7.50;;;1.33;;
51036;SDS011;37064;59.346;18.058;2023-04-01T00:54:26;1.77;;;0.90;;
51036;SDS011;37064;59.346;18.058;2023-04-01T00:56:59;3.15;;;1.40;;
51036;SDS011;37064;59.346;18.058;2023-04-01T00:59:27;3.20;;;1.55;;
51036;SDS011;37064;59.346;18.058;2023-04-01T01:01:54;2.08;;;1.40;;
51036;SDS011;37064;59.346;18.058;2023-04-01T01:04:33;2.17;;;1.20;;
51036;SDS011;37064;59.346;18.058;2023-04-01T01:15:02;1.55;;;1.10;;
51036;SDS011;37064;59.346;18.058;2023-04-01T01:20:14;1.90;;;0.98;;
51036;SDS011;37064;59.346;18.058;2023-04-01T01:30:58;2.78;;;1.27;;
51036;SDS011;37064;59.346;18.058;2023-04-01T01:35:56;2.17;;;1.13;;
51036;SDS011;37064;59.346;18.058;2023-04-01T01:38:24;2.20;;;1.00;;
51036;SDS011;37064;59.346;18.058;2023-04-01T01:40:52;4.38;;;1.30;;
51036;SDS011;37064;59.346;18.058;2023-04-01T01:43:23;1.45;;;1.10;;
51036;SDS011;37064;59.346;18.058;2023-04-01T01:45:51;1.67;;;1.00;;
51036;SDS011;37064;59.346;18.058;2023-04-01T01:48:18;1.98;;;1.38;;
51036;SDS011;37064;59.346;18.058;2023-04-01T01:50:44;2.97;;;1.35;;
51036;SDS011;37064;59.346;18.058;2023-04-01T01:53:11;2.42;;;1.17;;
51036;SDS011;37064;59.346;18.058;2023-04-01T01:55:42;2.72;;;1.05;;
51036;SDS011;37064;59.346;18.058;2023-04-01T02:00:59;2.53;;;1.02;;
51036;SDS011;37064;59.346;18.058;2023-04-01T02:03:26;1.23;;;0.85;;
51036;SDS011;37064;59.346;18.058;2023-04-01T02:05:53;2.08;;;1.02;;
51036;SDS011;37064;59.346;18.058;2023-04-01T02:08:22;1.35;;;0.95;;
51036;SDS011;37064;59.346;18.058;2023-04-01T02:10:53;1.50;;;0.95;;
51036;SDS011;37064;59.346;18.058;2023-04-01T02:13:29;1.45;;;0.98;;
51036;SDS011;37064;59.346;18.058;2023-04-01T02:15:57;2.55;;;0.90;;
51036;SDS011;37064;59.346;18.058;2023-04-01T02:18:25;2.10;;;1.20;;
51036;SDS011;37064;59.346;18.058;2023-04-01T02:20:53;2.47;;;1.20;;
51036;SDS011;37064;59.346;18.058;2023-04-01T02:23:20;1.65;;;1.25;;
51036;SDS011;37064;59.346;18.058;2023-04-01T02:25:47;2.45;;;1.52;;
51036;SDS011;37064;59.346;18.058;2023-04-01T02:28:13;2.65;;;1.10;;
51036;SDS011;37064;59.346;18.058;2023-04-01T02:30:42;1.95;;;1.08;;
51036;SDS011;37064;59.346;18.058;2023-04-01T02:33:08;4.10;;;1.02;;
51036;SDS011;37064;59.346;18.058;2023-04-01T02:35:37;1.85;;;1.05;;
51036;SDS011;37064;59.346;18.058;2023-04-01T02:38:03;2.70;;;1.27;;
51036;SDS011;37064;59.346;18.058;2023-04-01T02:40:40;1.55;;;0.93;;
51036;SDS011;37064;59.346;18.058;2023-04-01T02:43:06;1.45;;;0.98;;
51036;SDS011;37064;59.346;18.058;2023-04-01T02:45:32;0.90;;;0.73;;
51036;SDS011;37064;59.346;18.058;2023-04-01T02:47:58;2.25;;;1.00;;
51036;SDS011;37064;59.346;18.058;2023-04-01T02:50:24;2.90;;;1.10;;
51036;SDS011;37064;59.346;18.058;2023-04-01T02:52:50;1.25;;;0.98;;
51036;SDS011;37064;59.346;18.058;2023-04-01T02:55:16;2.55;;;1.10;;
51036;SDS011;37064;59.346;18.058;2023-04-01T02:57:42;2.65;;;1.85;;
51036;SDS011;37064;59.346;18.058;2023-04-01T03:00:08;2.72;;;1.10;;
51036;SDS011;37064;59.346;18.058;2023-04-01T03:02:36;1.75;;;1.17;;
51036;SDS011;37064;59.346;18.058;2023-04-01T03:05:02;1.63;;;0.98;;
51036;SDS011;37064;59.346;18.058;2023-04-01T03:07:28;2.47;;;1.05;;
51036;SDS011;37064;59.346;18.058;2023-04-01T03:09:54;1.75;;;1.10;;
51036;SDS011;37064;59.346;18.058;2023-04-01T03:12:20;1.48;;;0.93;;
51036;SDS011;37064;59.346;18.058;2023-04-01T03:14:46;3.28;;;1.38;;
51036;SDS011;37064;59.346;18.058;2023-04-01T03:17:13;1.40;;;0.95;;
51036;SDS011;37064;59.346;18.058;2023-04-01T03:19:39;3.13;;;1.10;;
51036;SDS011;37064;59.346;18.058;2023-04-01T03:22:05;1.88;;;1.25;;
51036;SDS011;37064;59.346;18.058;2023-04-01T03:24:31;1.23;;;0.90;;
51036;SDS011;37064;59.346;18.058;2023-04-01T03:26:57;2.85;;;1.10;;
51036;SDS011;37064;59.346;18.058;2023-04-01T03:29:23;0.98;;;0.80;;
51036;SDS011;37064;59.346;18.058;2023-04-01T03:31:49;1.88;;;0.95;;
51036;SDS011;37064;59.346;18.058;2023-04-01T03:34:15;1.20;;;0.80;;
51036;SDS011;37064;59.346;18.058;2023-04-01T03:36:41;2.63;;;1.02;;
51036;SDS011;37064;59.346;18.058;2023-04-01T03:39:07;3.45;;;1.42;;
51036;SDS011;37064;59.346;18.058;2023-04-01T03:41:35;1.75;;;1.00;;
51036;SDS011;37064;59.346;18.058;2023-04-01T03:44:01;2.20;;;0.90;;
51036;SDS011;37064;59.346;18.058;2023-04-01T03:46:27;1.58;;;1.00;;
51036;SDS011;37064;59.346;18.058;2023-04-01T03:48:53;2.42;;;1.13;;
51036;SDS011;37064;59.346;18.058;2023-04-01T03:51:19;3.35;;;0.95;;
51036;SDS011;37064;59.346;18.058;2023-04-01T03:53:45;1.35;;;0.80;;
51036;SDS011;37064;59.346;18.058;2023-04-01T03:56:11;5.50;;;1.00;;
51036;SDS011;37064;59.346;18.058;2023-04-01T03:58:37;2.90;;;1.13;;
51036;SDS011;37064;59.346;18.058;2023-04-01T04:01:12;1.85;;;0.90;;
51036;SDS011;37064;59.346;18.058;2023-04-01T04:03:38;2.53;;;0.82;;
51036;SDS011;37064;59.346;18.058;2023-04-01T04:06:04;1.63;;;1.00;;
51036;SDS011;37064;59.346;18.058;2023-04-01T04:08:30;2.10;;;0.70;;
51036;SDS011;37064;59.346;18.058;2023-04-01T04:10:56;3.83;;;0.95;;
51036;SDS011;37064;59.346;18.058;2023-04-01T04:13:22;3.22;;;1.30;;
51036;SDS011;37064;59.346;18.058;2023-04-01T04:15:48;1.48;;;1.05;;
51036;SDS011;37064;59.346;18.058;2023-04-01T04:18:14;2.08;;;0.95;;
51036;SDS011;37064;59.346;18.058;2023-04-01T04:20:46;2.50;;;0.95;;
51036;SDS011;37064;59.346;18.058;2023-04-01T04:23:15;2.28;;;1.00;;
51036;SDS011;37064;59.346;18.058;2023-04-01T04:25:41;1.65;;;1.23;;
51036;SDS011;37064;59.346;18.058;2023-04-01T04:28:07;2.63;;;1.27;;
51036;SDS011;37064;59.346;18.058;2023-04-01T04:30:33;2.53;;;1.50;;
51036;SDS011;37064;59.346;18.058;2023-04-01T04:32:59;3.15;;;1.20;;
51036;SDS011;37064;59.346;18.058;2023-04-01T04:35:25;3.63;;;1.17;;
51036;SDS011;37064;59.346;18.058;2023-04-01T04:37:51;1.70;;;1.48;;
51036;SDS011;37064;59.346;18.058;2023-04-01T04:40:17;4.43;;;1.33;;
51036;SDS011;37064;59.346;18.058;2023-04-01T04:42:43;2.35;;;1.35;;
51036;SDS011;37064;59.346;18.058;2023-04-01T04:45:09;1.20;;;1.00;;
51036;SDS011;37064;59.346;18.058;2023-04-01T04:47:37;1.73;;;1.05;;
51036;SDS011;37064;59.346;18.058;2023-04-01T04:50:03;2.65;;;1.08;;
51036;SDS011;37064;59.346;18.058;2023-04-01T04:52:30;4.43;;;1.15;;
51036;SDS011;37064;59.346;18.058;2023-04-01T04:54:56;1.60;;;0.95;;
51036;SDS011;37064;59.346;18.058;2023-04-01T04:57:22;5.03;;;1.30;;
51036;SDS011;37064;59.346;18.058;2023-04-01T04:59:48;6.13;;;2.90;;
51036;SDS011;37064;59.346;18.058;2023-04-01T05:02:14;1.70;;;1.08;;
51036;SDS011;37064;59.346;18.058;2023-04-01T05:04:40;2.28;;;1.20;;
51036;SDS011;37064;59.346;18.058;2023-04-01T05:07:06;2.63;;;1.00;;
51036;SDS011;37064;59.346;18.058;2023-04-01T05:09:32;1.55;;;1.20;;
51036;SDS011;37064;59.346;18.058;2023-04-01T05:11:58;1.92;;;1.17;;
51036;SDS011;37064;59.346;18.058;2023-04-01T05:14:24;3.47;;;1.40;;
51036;SDS011;37064;59.346;18.058;2023-04-01T05:16:50;6.32;;;1.20;;
51036;SDS011;37064;59.346;18.058;2023-04-01T05:19:16;2.15;;;1.00;;
51036;SDS011;37064;59.346;18.058;2023-04-01T05:21:42;2.55;;;0.93;;
51036;SDS011;37064;59.346;18.058;2023-04-01T05:24:08;2.22;;;1.05;;
51036;SDS011;37064;59.346;18.058;2023-04-01T05:26:35;1.85;;;1.17;;
51036;SDS011;37064;59.346;18.058;2023-04-01T05:29:02;2.92;;;1.30;;
51036;SDS011;37064;59.346;18.058;2023-04-01T05:31:28;2.05;;;1.00;;
51036;SDS011;37064;59.346;18.058;2023-04-01T05:33:54;1.70;;;1.20;;
51036;SDS011;37064;59.346;18.058;2023-04-01T05:36:20;1.50;;;0.90;;
51036;SDS011;37064;59.346;18.058;2023-04-01T05:38:46;2.88;;;0.98;;
51036;SDS011;37064;59.346;18.058;2023-04-01T05:41:13;1.67;;;1.00;;
51036;SDS011;37064;59.346;18.058;2023-04-01T05:43:39;2.97;;;1.00;;
51036;SDS011;37064;59.346;18.058;2023-04-01T05:46:05;2.15;;;1.00;;
51036;SDS011;37064;59.346;18.058;2023-04-01T05:48:32;2.63;;;0.95;;
51036;SDS011;37064;59.346;18.058;2023-04-01T05:50:59;3.05;;;1.48;;
51036;SDS011;37064;59.346;18.058;2023-04-01T05:53:25;1.95;;;1.02;;
51036;SDS011;37064;59.346;18.058;2023-04-01T05:55:51;3.80;;;1.00;;
51036;SDS011;37064;59.346;18.058;2023-04-01T05:58:17;2.08;;;1.25;;
51036;SDS011;37064;59.346;18.058;2023-04-01T06:00:43;1.27;;;0.70;;
51036;SDS011;37064;59.346;18.058;2023-04-01T06:03:09;1.20;;;0.90;;
51036;SDS011;37064;59.346;18.058;2023-04-01T06:05:39;1.10;;;0.80;;
51036;SDS011;37064;59.346;18.058;2023-04-01T06:08:10;2.67;;;0.88;;
51036;SDS011;37064;59.346;18.058;2023-04-01T06:16:27;2.83;;;0.80;;
51036;SDS011;37064;59.346;18.058;2023-04-01T06:18:51;1.75;;;0.90;;
51036;SDS011;37064;59.346;18.058;2023-04-01T06:29:03;0.77;;;0.60;;
51036;SDS011;37064;59.346;18.058;2023-04-01T06:31:44;3.25;;;1.60;;
51036;SDS011;37064;59.346;18.058;2023-04-01T06:34:22;2.85;;;0.70;;
51036;SDS011;37064;59.346;18.058;2023-04-01T06:37:10;2.58;;;0.90;;
51036;SDS011;37064;59.346;18.058;2023-04-01T06:39:42;1.42;;;0.80;;
51036;SDS011;37064;59.346;18.058;2023-04-01T06:42:25;3.67;;;0.98;;
51036;SDS011;37064;59.346;18.058;2023-04-01T07:00:27;1.48;;;0.90;;
51036;SDS011;37064;59.346;18.058;2023-04-01T07:03:39;1.38;;;1.02;;
51036;SDS011;37064;59.346;18.058;2023-04-01T07:05:39;1.70;;;0.63;;
51036;SDS011;37064;59.346;18.058;2023-04-01T07:08:06;0.85;;;0.70;;
51036;SDS011;37064;59.346;18.058;2023-04-01T07:10:35;1.85;;;0.90;;
51036;SDS011;37064;59.346;18.058;2023-04-01T07:13:04;1.52;;;0.80;;
51036;SDS011;37064;59.346;18.058;2023-04-01T07:15:42;4.10;;;0.70;;
51036;SDS011;37064;59.346;18.058;2023-04-01T07:18:14;1.00;;;0.70;;
51036;SDS011;37064;59.346;18.058;2023-04-01T07:20:41;1.38;;;0.80;;
51036;SDS011;37064;59.346;18.058;2023-04-01T07:23:27;0.98;;;0.68;;
51036;SDS011;37064;59.346;18.058;2023-04-01T07:26:00;3.28;;;0.90;;
51036;SDS011;37064;59.346;18.058;2023-04-01T07:28:30;6.32;;;0.93;;
51036;SDS011;37064;59.346;18.058;2023-04-01T07:31:13;3.08;;;0.60;;
51036;SDS011;37064;59.346;18.058;2023-04-01T07:37:09;2.40;;;1.05;;
51036;SDS011;37064;59.346;18.058;2023-04-01T07:41:45;3.30;;;0.98;;
51036;SDS011;37064;59.346;18.058;2023-04-01T07:54:19;3.10;;;0.95;;
51036;SDS011;37064;59.346;18.058;2023-04-01T07:56:59;1.95;;;0.70;;
51036;SDS011;37064;59.346;18.058;2023-04-01T08:07:13;1.10;;;0.60;;
51036;SDS011;37064;59.346;18.058;2023-04-01T08:12:21;1.90;;;1.20;;
51036;SDS011;37064;59.346;18.058;2023-04-01T08:22:49;1.17;;;0.85;;
51036;SDS011;37064;59.346;18.058;2023-04-01T08:25:18;2.28;;;0.70;;
51036;SDS011;37064;59.346;18.058;2023-04-01T08:27:51;1.25;;;0.55;;
51036;SDS011;37064;59.346;18.058;2023-04-01T08:33:05;0.60;;;0.52;;
51036;SDS011;37064;59.346;18.058;2023-04-01T08:35:43;1.73;;;0.70;;
51036;SDS011;37064;59.346;18.058;2023-04-01T08:38:19;5.90;;;1.35;;
51036;SDS011;37064;59.346;18.058;2023-04-01T08:43:38;15.10;;;0.82;;
51036;SDS011;37064;59.346;18.058;2023-04-01T09:04:13;4.78;;;0.90;;
51036;SDS011;37064;59.346;18.058;2023-04-01T09:14:12;1.63;;;0.65;;
51036;SDS011;37064;59.346;18.058;2023-04-01T09:22:01;1.10;;;0.60;;
51036;SDS011;37064;59.346;18.058;2023-04-01T09:24:40;1.05;;;0.55;;
51036;SDS011;37064;59.346;18.058;2023-04-01T09:37:34;1.80;;;0.70;;
51036;SDS011;37064;59.346;18.058;2023-04-01T10:24:53;2.13;;;0.52;;
51036;SDS011;37064;59.346;18.058;2023-04-01T10:27:38;1.23;;;0.60;;
51036;SDS011;37064;59.346;18.058;2023-04-01T10:43:24;0.82;;;0.38;;
51036;SDS011;37064;59.346;18.058;2023-04-01T10:46:05;2.53;;;0.40;;
51036;SDS011;37064;59.346;18.058;2023-04-01T10:54:04;0.40;;;0.30;;
51036;SDS011;37064;59.346;18.058;2023-04-01T10:56:40;0.75;;;0.40;;
51036;SDS011;37064;59.346;18.058;2023-04-01T10:59:11;0.85;;;0.35;;
51036;SDS011;37064;59.346;18.058;2023-04-01T11:14:49;1.10;;;0.57;;
51036;SDS011;37064;59.346;18.058;2023-04-01T11:28:15;0.60;;;0.40;;
51036;SDS011;37064;59.346;18.058;2023-04-01T11:33:35;0.30;;;0.30;;
51036;SDS011;37064;59.346;18.058;2023-04-01T11:36:09;0.40;;;0.30;;
51036;SDS011;37064;59.346;18.058;2023-04-01T11:46:39;1.10;;;0.30;;
51036;SDS011;37064;59.346;18.058;2023-04-01T11:49:21;0.50;;;0.50;;
51036;SDS011;37064;59.346;18.058;2023-04-01T12:10:19;0.80;;;0.30;;
51036;SDS011;37064;59.346;18.058;2023-04-01T12:12:52;3.08;;;0.47;;
51036;SDS011;37064;59.346;18.058;2023-04-01T12:41:27;2.75;;;0.32;;
51036;SDS011;37064;59.346;18.058;2023-04-01T12:43:59;0.38;;;0.30;;
51036;SDS011;37064;59.346;18.058;2023-04-01T12:49:12;0.60;;;0.30;;
51036;SDS011;37064;59.346;18.058;2023-04-01T13:10:25;0.30;;;0.30;;
51036;SDS011;37064;59.346;18.058;2023-04-01T13:18:19;1.17;;;0.30;;
51036;SDS011;37064;59.346;18.058;2023-04-01T13:36:44;0.25;;;0.22;;
51036;SDS011;37064;59.346;18.058;2023-04-01T13:44:30;0.30;;;0.30;;
51036;SDS011;37064;59.346;18.058;2023-04-01T13:49:52;2.22;;;0.38;;
51036;SDS011;37064;59.346;18.058;2023-04-01T13:57:56;0.40;;;0.30;;
51036;SDS011;37064;59.346;18.058;2023-04-01T14:00:44;2.88;;;0.90;;
51036;SDS011;37064;59.346;18.058;2023-04-01T14:05:47;1.65;;;0.38;;
51036;SDS011;37064;59.346;18.058;2023-04-01T14:15:58;0.60;;;0.30;;
51036;SDS011;37064;59.346;18.058;2023-04-01T14:39:20;0.60;;;0.40;;
51036;SDS011;37064;59.346;18.058;2023-04-01T14:51:47;1.60;;;0.30;;
51036;SDS011;37064;59.346;18.058;2023-04-01T14:54:15;0.50;;;0.38;;
51036;SDS011;37064;59.346;18.058;2023-04-01T14:56:48;0.65;;;0.32;;
51036;SDS011;37064;59.346;18.058;2023-04-01T14:59:17;0.30;;;0.25;;
51036;SDS011;37064;59.346;18.058;2023-04-01T15:09:56;3.22;;;1.10;;
51036;SDS011;37064;59.346;18.058;2023-04-01T15:15:09;2.15;;;0.40;;
51036;SDS011;37064;59.346;18.058;2023-04-01T15:20:24;1.60;;;0.77;;
51036;SDS011;37064;59.346;18.058;2023-04-01T15:25:43;1.02;;;0.50;;
51036;SDS011;37064;59.346;18.058;2023-04-01T15:28:14;1.30;;;0.68;;
51036;SDS011;37064;59.346;18.058;2023-04-01T15:38:43;0.52;;;0.30;;
51036;SDS011;37064;59.346;18.058;2023-04-01T15:41:17;1.67;;;0.47;;
51036;SDS011;37064;59.346;18.058;2023-04-01T15:43:48;3.38;;;0.52;;
51036;SDS011;37064;59.346;18.058;2023-04-01T15:51:42;2.13;;;0.50;;
51036;SDS011;37064;59.346;18.058;2023-04-01T15:56:59;4.00;;;0.40;;
51036;SDS011;37064;59.346;18.058;2023-04-01T16:01:59;0.73;;;0.30;;
51036;SDS011;37064;59.346;18.058;2023-04-01T16:19:27;1.05;;;0.70;;
51036;SDS011;37064;59.346;18.058;2023-04-01T16:22:01;0.57;;;0.30;;
51036;SDS011;37064;59.346;18.058;2023-04-01T16:24:35;2.67;;;0.30;;
51036;SDS011;37064;59.346;18.058;2023-04-01T16:27:05;1.52;;;0.43;;
51036;SDS011;37064;59.346;18.058;2023-04-01T16:29:38;0.73;;;0.40;;
51036;SDS011;37064;59.346;18.058;2023-04-01T16:34:44;1.73;;;0.50;;
51036;SDS011;37064;59.346;18.058;2023-04-01T16:37:21;5.57;;;0.55;;
51036;SDS011;37064;59.346;18.058;2023-04-01T16:40:02;3.00;;;1.10;;
51036;SDS011;37064;59.346;18.058;2023-04-01T16:42:40;6.65;;;1.02;;
51036;SDS011;37064;59.346;18.058;2023-04-01T16:45:17;1.63;;;0.57;;
51036;SDS011;37064;59.346;18.058;2023-04-01T16:47:49;2.05;;;0.80;;
51036;SDS011;37064;59.346;18.058;2023-04-01T16:50:52;3.28;;;0.85;;
51036;SDS011;37064;59.346;18.058;2023-04-01T16:55:51;1.45;;;0.57;;
51036;SDS011;37064;59.346;18.058;2023-04-01T16:58:25;2.40;;;1.02;;
51036;SDS011;37064;59.346;18.058;2023-04-01T17:00:58;4.10;;;0.60;;
51036;SDS011;37064;59.346;18.058;2023-04-01T17:03:27;2.15;;;0.68;;
51036;SDS011;37064;59.346;18.058;2023-04-01T17:06:00;1.52;;;0.70;;
51036;SDS011;37064;59.346;18.058;2023-04-01T17:24:27;3.97;;;1.13;;
51036;SDS011;37064;59.346;18.058;2023-04-01T17:27:01;5.35;;;0.90;;
51036;SDS011;37064;59.346;18.058;2023-04-01T17:32:11;1.33;;;0.75;;
51036;SDS011;37064;59.346;18.058;2023-04-01T17:34:45;7.53;;;0.80;;
51036;SDS011;37064;59.346;18.058;2023-04-01T17:44:56;2.15;;;1.17;;
51036;SDS011;37064;59.346;18.058;2023-04-01T17:57:42;2.50;;;1.15;;
51036;SDS011;37064;59.346;18.058;2023-04-01T18:03:00;7.72;;;1.40;;
51036;SDS011;37064;59.346;18.058;2023-04-01T18:24:16;7.88;;;2.30;;
51036;SDS011;37064;59.346;18.058;2023-04-01T18:26:47;4.78;;;1.95;;
51036;SDS011;37064;59.346;18.058;2023-04-01T18:31:48;6.20;;;1.65;;
51036;SDS011;37064;59.346;18.058;2023-04-01T18:36:44;7.90;;;2.47;;
51036;SDS011;37064;59.346;18.058;2023-04-01T18:39:16;5.78;;;1.80;;
51036;SDS011;37064;59.346;18.058;2023-04-01T18:44:46;6.70;;;1.50;;
51036;SDS011;37064;59.346;18.058;2023-04-01T18:49:53;8.57;;;2.25;;
51036;SDS011;37064;59.346;18.058;2023-04-01T18:57:16;33.20;;;2.80;;
51036;SDS011;37064;59.346;18.058;2023-04-01T19:05:05;5.03;;;1.33;;
51036;SDS011;37064;59.346;18.058;2023-04-01T19:10:19;6.18;;;1.88;;
51036;SDS011;37064;59.346;18.058;2023-04-01T19:12:52;6.10;;;1.60;;
51036;SDS011;37064;59.346;18.058;2023-04-01T19:15:23;3.78;;;1.50;;
51036;SDS011;37064;59.346;18.058;2023-04-01T19:20:34;3.78;;;1.65;;
51036;SDS011;37064;59.346;18.058;2023-04-01T19:25:48;4.93;;;2.20;;
51036;SDS011;37064;59.346;18.058;2023-04-01T19:36:09;6.60;;;1.85;;
51036;SDS011;37064;59.346;18.058;2023-04-01T19:38:38;5.65;;;2.78;;
51036;SDS011;37064;59.346;18.058;2023-04-01T19:46:36;6.22;;;1.77;;
51036;SDS011;37064;59.346;18.058;2023-04-01T19:51:33;5.50;;;2.22;;
51036;SDS011;37064;59.346;18.058;2023-04-01T19:56:31;7.32;;;1.50;;
51036;SDS011;37064;59.346;18.058;2023-04-01T20:01:35;3.22;;;1.10;;
51036;SDS011;37064;59.346;18.058;2023-04-01T20:04:04;7.85;;;2.08;;
51036;SDS011;37064;59.346;18.058;2023-04-01T20:09:34;8.38;;;1.73;;
51036;SDS011;37064;59.346;18.058;2023-04-01T20:12:08;6.55;;;1.58;;
51036;SDS011;37064;59.346;18.058;2023-04-01T20:14:40;4.40;;;1.30;;
51036;SDS011;37064;59.346;18.058;2023-04-01T20:17:17;7.28;;;2.35;;
51036;SDS011;37064;59.346;18.058;2023-04-01T20:22:24;4.80;;;1.30;;
51036;SDS011;37064;59.346;18.058;2023-04-01T20:24:53;7.50;;;3.15;;
51036;SDS011;37064;59.346;18.058;2023-04-01T20:27:23;3.78;;;1.58;;
51036;SDS011;37064;59.346;18.058;2023-04-01T20:32:40;8.43;;;1.60;;
51036;SDS011;37064;59.346;18.058;2023-04-01T20:35:15;8.43;;;1.25;;
51036;SDS011;37064;59.346;18.058;2023-04-01T20:37:48;1.95;;;1.10;;
51036;SDS011;37064;59.346;18.058;2023-04-01T20:40:23;4.75;;;1.73;;
51036;SDS011;37064;59.346;18.058;2023-04-01T20:45:27;8.48;;;3.10;;
51036;SDS011;37064;59.346;18.058;2023-04-01T20:47:59;3.65;;;1.60;;
51036;SDS011;37064;59.346;18.058;2023-04-01T20:50:31;5.43;;;1.80;;
51036;SDS011;37064;59.346;18.058;2023-04-01T20:58:40;4.03;;;1.27;;
51036;SDS011;37064;59.346;18.058;2023-04-01T21:11:38;11.02;;;2.38;;
51036;SDS011;37064;59.346;18.058;2023-04-01T21:14:24;4.88;;;1.52;;
51036;SDS011;37064;59.346;18.058;2023-04-01T21:38:04;5.57;;;1.48;;
51036;SDS011;37064;59.346;18.058;2023-04-01T22:07:37;4.32;;;1.20;;
51036;SDS011;37064;59.346;18.058;2023-04-01T22:09:48;3.72;;;1.25;;
51036;SDS011;37064;59.346;18.058;2023-04-01T22:12:22;7.18;;;1.50;;
51036;SDS011;37064;59.346;18.058;2023-04-01T22:23:27;2.22;;;0.95;;
51036;SDS011;37064;59.346;18.058;2023-04-01T22:25:56;2.67;;;1.00;;
51036;SDS011;37064;59.346;18.058;2023-04-01T22:28:29;3.08;;;1.25;;
51036;SDS011;37064;59.346;18.058;2023-04-01T22:31:00;10.38;;;1.45;;
51036;SDS011;37064;59.346;18.058;2023-04-01T22:33:34;5.10;;;1.80;;
51036;SDS011;37064;59.346;18.058;2023-04-01T22:41:09;6.57;;;1.58;;
51036;SDS011;37064;59.346;18.058;2023-04-01T22:43:39;6.18;;;1.27;;
51036;SDS011;37064;59.346;18.058;2023-04-01T23:02:10;3.75;;;1.00;;
51036;SDS011;37064;59.346;18.058;2023-04-01T23:04:39;4.60;;;1.38;;
51036;SDS011;37064;59.346;18.058;2023-04-01T23:09:52;6.40;;;1.30;;
51036;SDS011;37064;59.346;18.058;2023-04-01T23:12:20;8.63;;;1.58;;
51036;SDS011;37064;59.346;18.058;2023-04-01T23:20:06;9.82;;;1.08;;
51036;SDS011;37064;59.346;18.058;2023-04-01T23:27:45;5.55;;;1.42;;
51036;SDS011;37064;59.346;18.058;2023-04-01T23:33:09;4.18;;;1.08;;
51036;SDS011;37064;59.346;18.058;2023-04-01T23:35:46;5.28;;;1.15;;
51036;SDS011;37064;59.346;18.058;2023-04-01T23:38:12;3.33;;;0.82;;
51036;SDS011;37064;59.346;18.058;2023-04-01T23:40:39;5.45;;;1.23;;
51036;SDS011;37064;59.346;18.058;2023-04-01T23:43:13;4.97;;;1.27;;
51036;SDS011;37064;59.346;18.058;2023-04-01T23:45:41;4.60;;;1.08;;
51036;SDS011;37064;59.346;18.058;2023-04-01T23:48:10;8.82;;;1.20;;
51036;SDS011;37064;59.346;18.058;2023-04-01T23:53:04;4.55;;;1.30;;
51036;SDS011;37064;59.346;18.058;2023-04-01T23:58:13;4.97;;;0.88;;
